Sven Haas

Scout - VfB Stuttgart
22 Feb 2028
Dienstag
Verarbeitung

Persönlichkeit

Anpassungsfähigkeit (2) Ehrgeiz (3) Kontroverse (19) Loyalität (6) Druck (7) Professionalität (9) Fairness (2) Temperament (12)

Profil

Trainerstil Demokratisch
Lizenz Nationale A
Entschlossenheit 15
Menschenführung 11
Motivation 12
Disziplin 9
Arbeitszufriedenheit
100%
Ermüdung
0%
Rolle Scout
Gehalt 34.3K p/W
Vertrag 14.03.2030

Leistung

Verhalten Gut
Trainingseffektivität
55%
Spielerentwicklung
35%
Verletzungsprävention
70%
Taktische Umsetzung
55%

Letzte Ereignisse

Nahm an einer Scouting-Besprechung teil 7T her
Nahm an einer Scouting-Besprechung teil 14T her
Empfahl ein Transferziel 14T her
Spiel beobachtet 14T her
Nahm an einer Scouting-Besprechung teil 21T her
Empfahl ein Transferziel 21T her
Spiel beobachtet 21T her
Spiel beobachtet 28T her

Aktuell beobachtet

90
Spieler Verein Status Fähigkeit Vertrauen Beobachtet Zuletzt beobachtet Letzte Stimme
Giacomo Bonaventura Borussia Dortmund Verloren 143 / 144 72% 1 17.01.2028 Befürworten
Christian Günter SC Freiburg Verloren 139 / 132 72% 1 10.01.2028 Befürworten
Ethan Nwaneri Arsenal Aktiv 153 / 159 40% 1 10.01.2028 -
Luca Williams-Barnett Tranmere Rovers Verhandlung 126 / 122 40% 1 10.01.2028 -
Josh Nichols Tranmere Rovers Aktiv 118 / 118 40% 1 10.01.2028 -
Josh Keeley Tigres Aktiv 137 / 142 40% 2 31.12.2027 -
Joe Whitworth Stockport County Aktiv 123 / 120 40% 1 31.12.2027 -
Christ Inao Oulaï Fiorentina Aktiv 138 / 137 40% 2 16.08.2027 -
Marc Bernal Real Sociedad Aktiv 150 / 160 40% 2 16.08.2027 -
Jesús Rodríguez Como Aktiv 155 / 145 40% 1 16.08.2027 -
Sergio Barlocco Trento Aktiv 110 / 124 40% 2 10.08.2027 -
Robin Roefs Sunderland Aktiv 149 / 152 40% 1 10.08.2027 -
Walid Juma Al Shaab Aktiv 117 / 106 40% 1 10.08.2027 -
Matías Gómez Granada Aktiv 120 / 125 40% 2 27.07.2027 -
Yusi Alavés Aktiv 130 / 133 40% 2 27.07.2027 -
Josh King Chelsea Aktiv 147 / 141 40% 1 19.07.2027 -
Jan Bürger Gillingham Aktiv 106 / 122 40% 1 31.05.2027 -
Niklas Steffen Thun Aktiv 114 / 116 40% 1 18.01.2027 -
Bradley Mabunda SuperSport United Aktiv 105 / 104 40% 1 18.01.2027 -
Ousmane Dembélé Paris Saint-Germain Aktiv 192 / 176 40% 4 31.12.2026 -
Ferran Torres Paris Saint-Germain Aktiv 167 / 170 40% 2 31.12.2026 -
Álex Baena Atlético Madrid Aktiv 162 / 160 40% 3 30.12.2026 -
Gavi Barcelona Aktiv 152 / 156 40% 4 30.12.2026 -
Marcus Rashford Manchester United Aktiv 165 / 148 40% 1 30.12.2026 -
Alejandro Grimaldo Atlético Madrid Aktiv 164 / 159 40% 2 28.12.2026 -
Matheus Cunha Manchester United Aktiv 165 / 161 40% 2 28.12.2026 -
Nico Williams Athletic Bilbao Aktiv 173 / 171 40% 5 28.12.2026 -
Cody Gakpo Liverpool Aktiv 159 / 153 40% 2 28.12.2026 -
Ozziel Herrera Tigres Aktiv 130 / 130 40% 1 28.12.2026 -
Matt O'Riley Brighton Aktiv 144 / 151 40% 3 26.12.2026 -
Nicolas Jackson Aston Villa Aktiv 153 / 141 40% 2 26.12.2026 -
Martin Ødegaard Arsenal Aktiv 171 / 169 40% 3 23.12.2026 -
Kai Havertz Arsenal Aktiv 157 / 153 40% 9 23.12.2026 -
João Pedro Chelsea Aktiv 148 / 157 40% 3 23.12.2026 -
Kang-In Lee Atlético Madrid Aktiv 161 / 166 40% 4 22.12.2026 -
Kiernan Dewsbury-Hall Everton Aktiv 154 / 145 40% 2 22.12.2026 -
Mason Mount Manchester United Aktiv 162 / 159 40% 2 21.12.2026 -
Marco Asensio Fenerbahce Verloren 163 / 160 40% 2 20.12.2026 -
Callum Hudson-Odoi Nottingham Forest Aktiv 143 / 158 40% 1 17.12.2026 -
Pablo Barrios Atlético Madrid Aktiv 156 / 163 40% 2 15.12.2026 -
Andrés Martín Racing Santander Aktiv 133 / 130 40% 4 15.12.2026 -
Gabriel Martinelli Brighton Aktiv 160 / 160 40% 4 12.12.2026 -
Maurits Kjærgaard Red Bull Salzburg Aktiv 126 / 126 40% 1 12.12.2026 -
Thiago Brentford Aktiv 141 / 148 40% 1 12.12.2026 -
Juan-José Perea Zurich Aktiv 127 / 124 40% 2 11.12.2026 -
Jonathan Dubasin Osasuna Aktiv 146 / 140 40% 1 11.12.2026 -
Tani Oluwaseyi Villarreal Aktiv 145 / 138 40% 1 10.12.2026 -
Ibrahim Salah Basel Aktiv 125 / 129 40% 1 06.12.2026 -
Philippe Keny Zurich Aktiv 125 / 116 40% 1 05.12.2026 -
Johnny Cardoso Atlético Madrid Aktiv 162 / 153 40% 3 03.12.2026 -
Ademola Lookman Atlético Madrid Aktiv 151 / 152 40% 2 03.12.2026 -
Álex Berenguer Athletic Bilbao Aktiv 145 / 145 40% 2 01.12.2026 -
Iliman N'Diaye Everton Aktiv 153 / 153 40% 2 01.12.2026 -
Rômulo RB Leipzig Aktiv 138 / 137 40% 1 01.12.2026 -
Themba Ngcobo SuperSport United Aktiv 106 / 128 40% 2 27.11.2026 -
Georginio Rutter Brighton Aktiv 148 / 141 40% 2 24.11.2026 -
Declan Rice Arsenal Aktiv 186 / 182 40% 3 23.11.2026 -
Sinan Karweina Luzern Aktiv 112 / 113 40% 1 20.11.2026 -
Sandro Tonali Tottenham Aktiv 164 / 170 40% 4 19.11.2026 -
Alexis Mac Allister Liverpool Aktiv 170 / 153 40% 5 14.11.2026 -
Luis Díaz Bayern Munich Aktiv 176 / 163 40% 1 09.11.2026 -
Ez Abde Girona Aktiv 140 / 156 40% 1 02.11.2026 -
Ayo Akinola Vaduz Aktiv 111 / 116 40% 1 31.10.2026 -
Carlos Vicente Birmingham Aktiv 146 / 144 40% 1 29.10.2026 -
Oihan Sancet Athletic Bilbao Aktiv 166 / 157 40% 1 27.10.2026 -
Aimar Osasuna Aktiv 155 / 144 40% 1 22.10.2026 -
Sota Kitano Luzern Aktiv 117 / 133 40% 2 18.10.2026 -
Rayan Cherki Manchester City Aktiv 170 / 162 40% 2 13.10.2026 -
Rilind Nivokazi Sion Aktiv 118 / 118 40% 1 08.10.2026 -
Rafael Navarro St. Louis CITY SC Aktiv 129 / 123 40% 1 07.10.2026 -
Jérémy Doku Manchester City Aktiv 167 / 172 40% 2 30.09.2026 -
Santi Comesaña Villarreal Aktiv 148 / 157 40% 1 29.09.2026 -
Aurélien Tchouaméni Real Madrid Aktiv 174 / 160 40% 2 26.09.2026 -
Ryan Gravenberch Liverpool Aktiv 163 / 162 40% 1 26.09.2026 -
Nadiem Amiri Mainz 05 Aktiv 147 / 151 40% 1 23.09.2026 -
Moisés Caicedo Chelsea Aktiv 173 / 169 40% 2 22.09.2026 -
Ibrahima Konaté Real Madrid Aktiv 166 / 151 40% 1 22.09.2026 -
Matheus Nunes Manchester City Aktiv 165 / 164 40% 1 21.09.2026 -
Nico Schlotterbeck Borussia Dortmund Aktiv 164 / 160 40% 1 19.09.2026 -
Adam Wharton Crystal Palace Aktiv 154 / 150 40% 1 19.09.2026 -
Dominik Szoboszlai Liverpool Aktiv 170 / 160 40% 1 19.09.2026 -
Eduardo Camavinga Real Madrid Aktiv 155 / 165 40% 1 19.09.2026 -
Xaver Schlager Nottingham Forest Aktiv 147 / 153 40% 1 16.09.2026 -
Mats Wieffer Brighton Aktiv 146 / 145 40% 1 16.09.2026 -
Aleksandar Pavlović Bayern Munich Aktiv 142 / 156 40% 1 15.09.2026 -
Martín Zubimendi Arsenal Aktiv 153 / 165 40% 1 14.09.2026 -
Xavi Simons Tottenham Aktiv 162 / 151 40% 1 14.09.2026 -
Jan Paul van Hecke Tottenham Aktiv 150 / 165 40% 1 11.09.2026 -
Sven Botman Newcastle United Aktiv 157 / 163 40% 1 11.09.2026 -
Tyler Adams Bournemouth Aktiv 151 / 160 40% 1 08.09.2026 -